sensor_id;sensor_type;location;lat;lon;timestamp;pressure;altitude;pressure_sealevel;temperature;humidity
76260;BME280;65076;52.362;6.588;2023-02-18T00:01:37;102112.91;;;11.94;74.18
76260;BME280;65076;52.362;6.588;2023-02-18T00:04:05;102107.31;;;11.99;74.43
76260;BME280;65076;52.362;6.588;2023-02-18T00:06:34;102112.94;;;11.65;75.37
76260;BME280;65076;52.362;6.588;2023-02-18T00:09:04;102112.69;;;11.72;75.86
76260;BME280;65076;52.362;6.588;2023-02-18T00:11:34;102117.06;;;11.78;76.05
76260;BME280;65076;52.362;6.588;2023-02-18T00:14:07;102108.25;;;11.70;76.84
76260;BME280;65076;52.362;6.588;2023-02-18T00:16:39;102107.00;;;11.52;77.12
76260;BME280;65076;52.362;6.588;2023-02-18T00:19:10;102094.28;;;11.56;77.34
76260;BME280;65076;52.362;6.588;2023-02-18T00:21:40;102107.41;;;11.68;77.58
76260;BME280;65076;52.362;6.588;2023-02-18T00:24:10;102103.66;;;11.73;77.76
76260;BME280;65076;52.362;6.588;2023-02-18T00:26:41;102093.63;;;11.47;78.15
76260;BME280;65076;52.362;6.588;2023-02-18T00:29:11;102097.22;;;11.48;78.37
76260;BME280;65076;52.362;6.588;2023-02-18T00:31:39;102085.34;;;11.80;78.19
76260;BME280;65076;52.362;6.588;2023-02-18T00:34:09;102089.97;;;11.48;78.79
76260;BME280;65076;52.362;6.588;2023-02-18T00:36:38;102096.44;;;11.44;79.57
76260;BME280;65076;52.362;6.588;2023-02-18T00:39:08;102080.91;;;11.50;79.43
76260;BME280;65076;52.362;6.588;2023-02-18T00:41:37;102088.13;;;11.21;79.96
76260;BME280;65076;52.362;6.588;2023-02-18T00:44:05;102077.03;;;11.30;79.50
76260;BME280;65076;52.362;6.588;2023-02-18T00:46:35;102091.69;;;11.23;80.40
76260;BME280;65076;52.362;6.588;2023-02-18T00:49:04;102083.59;;;10.92;81.27
76260;BME280;65076;52.362;6.588;2023-02-18T00:51:32;102093.47;;;11.24;80.61
76260;BME280;65076;52.362;6.588;2023-02-18T00:54:01;102093.13;;;10.76;81.98
76260;BME280;65076;52.362;6.588;2023-02-18T00:56:28;102080.41;;;10.78;82.87
76260;BME280;65076;52.362;6.588;2023-02-18T00:58:56;102069.78;;;11.01;81.58
76260;BME280;65076;52.362;6.588;2023-02-18T01:01:24;102074.97;;;10.78;82.21
76260;BME280;65076;52.362;6.588;2023-02-18T01:03:54;102066.78;;;11.11;81.52
76260;BME280;65076;52.362;6.588;2023-02-18T01:06:22;102053.53;;;11.01;81.89
76260;BME280;65076;52.362;6.588;2023-02-18T01:08:50;102062.31;;;10.80;82.23
76260;BME280;65076;52.362;6.588;2023-02-18T01:11:18;102068.28;;;10.91;81.88
76260;BME280;65076;52.362;6.588;2023-02-18T01:13:46;102066.09;;;11.04;81.55
76260;BME280;65076;52.362;6.588;2023-02-18T01:16:14;102058.25;;;10.95;81.96
76260;BME280;65076;52.362;6.588;2023-02-18T01:18:42;102048.16;;;11.29;81.30
76260;BME280;65076;52.362;6.588;2023-02-18T01:21:12;102043.63;;;11.30;80.48
76260;BME280;65076;52.362;6.588;2023-02-18T01:23:41;102040.56;;;11.13;80.95
76260;BME280;65076;52.362;6.588;2023-02-18T01:26:10;102033.06;;;11.21;80.75
76260;BME280;65076;52.362;6.588;2023-02-18T01:28:38;102047.00;;;11.09;81.27
76260;BME280;65076;52.362;6.588;2023-02-18T01:31:09;102046.56;;;11.22;80.94
76260;BME280;65076;52.362;6.588;2023-02-18T01:33:39;102038.94;;;11.35;80.37
76260;BME280;65076;52.362;6.588;2023-02-18T01:36:09;102031.97;;;11.26;80.70
76260;BME280;65076;52.362;6.588;2023-02-18T01:38:38;102027.09;;;11.10;81.20
76260;BME280;65076;52.362;6.588;2023-02-18T01:41:07;102026.78;;;11.46;80.53
76260;BME280;65076;52.362;6.588;2023-02-18T01:43:37;102022.41;;;11.42;80.06
76260;BME280;65076;52.362;6.588;2023-02-18T01:46:17;102015.72;;;11.26;80.25
76260;BME280;65076;52.362;6.588;2023-02-18T01:48:50;102015.41;;;11.09;81.37
76260;BME280;65076;52.362;6.588;2023-02-18T01:51:24;102007.88;;;10.89;82.27
76260;BME280;65076;52.362;6.588;2023-02-18T01:53:59;102009.47;;;11.24;81.68
76260;BME280;65076;52.362;6.588;2023-02-18T01:56:34;102005.69;;;11.30;81.33
76260;BME280;65076;52.362;6.588;2023-02-18T01:59:08;102002.81;;;11.07;81.76
76260;BME280;65076;52.362;6.588;2023-02-18T02:01:41;101992.50;;;11.19;81.83
76260;BME280;65076;52.362;6.588;2023-02-18T02:04:11;101995.59;;;11.07;82.61
76260;BME280;65076;52.362;6.588;2023-02-18T02:06:39;101989.31;;;11.05;82.84
76260;BME280;65076;52.362;6.588;2023-02-18T02:09:11;101985.09;;;11.24;82.53
76260;BME280;65076;52.362;6.588;2023-02-18T02:12:09;101988.59;;;11.28;82.18
76260;BME280;65076;52.362;6.588;2023-02-18T02:15:08;101978.69;;;11.27;82.30
76260;BME280;65076;52.362;6.588;2023-02-18T02:17:59;101965.31;;;11.21;82.42
76260;BME280;65076;52.362;6.588;2023-02-18T02:21:06;101950.63;;;11.01;82.24
76260;BME280;65076;52.362;6.588;2023-02-18T02:27:18;101934.50;;;11.25;82.80
76260;BME280;65076;52.362;6.588;2023-02-18T02:36:49;101927.59;;;11.41;82.12
76260;BME280;65076;52.362;6.588;2023-02-18T02:39:30;101928.81;;;11.32;82.45
76260;BME280;65076;52.362;6.588;2023-02-18T02:42:11;101915.94;;;11.13;83.08
76260;BME280;65076;52.362;6.588;2023-02-18T02:44:51;101925.47;;;10.98;83.58
76260;BME280;65076;52.362;6.588;2023-02-18T02:47:30;101913.75;;;10.97;83.26
76260;BME280;65076;52.362;6.588;2023-02-18T02:50:06;101929.84;;;11.02;83.53
76260;BME280;65076;52.362;6.588;2023-02-18T02:52:43;101915.31;;;11.31;82.95
76260;BME280;65076;52.362;6.588;2023-02-18T02:55:14;101909.13;;;11.27;82.51
76260;BME280;65076;52.362;6.588;2023-02-18T02:57:47;101913.97;;;11.44;81.78
76260;BME280;65076;52.362;6.588;2023-02-18T03:00:19;101896.94;;;11.14;82.35
76260;BME280;65076;52.362;6.588;2023-02-18T03:03:09;101881.63;;;11.13;82.95
76260;BME280;65076;52.362;6.588;2023-02-18T03:05:58;101893.88;;;11.25;83.11
76260;BME280;65076;52.362;6.588;2023-02-18T03:08:49;101877.75;;;11.20;82.36
76260;BME280;65076;52.362;6.588;2023-02-18T03:11:28;101879.72;;;11.41;82.52
76260;BME280;65076;52.362;6.588;2023-02-18T03:14:09;101864.31;;;10.91;83.77
76260;BME280;65076;52.362;6.588;2023-02-18T03:16:47;101860.56;;;11.21;83.18
76260;BME280;65076;52.362;6.588;2023-02-18T03:19:21;101855.72;;;11.04;83.63
76260;BME280;65076;52.362;6.588;2023-02-18T03:21:56;101855.94;;;11.25;82.74
76260;BME280;65076;52.362;6.588;2023-02-18T03:24:30;101858.19;;;11.12;82.99
76260;BME280;65076;52.362;6.588;2023-02-18T03:27:05;101855.16;;;11.21;83.11
76260;BME280;65076;52.362;6.588;2023-02-18T03:29:38;101852.59;;;11.17;82.63
76260;BME280;65076;52.362;6.588;2023-02-18T03:32:11;101851.88;;;11.12;82.85
76260;BME280;65076;52.362;6.588;2023-02-18T03:34:47;101849.13;;;10.87;84.11
76260;BME280;65076;52.362;6.588;2023-02-18T03:37:19;101841.75;;;11.17;83.59
76260;BME280;65076;52.362;6.588;2023-02-18T03:39:53;101838.31;;;11.12;82.25
76260;BME280;65076;52.362;6.588;2023-02-18T03:42:27;101829.59;;;11.03;82.82
76260;BME280;65076;52.362;6.588;2023-02-18T03:44:55;101830.47;;;11.30;82.23
76260;BME280;65076;52.362;6.588;2023-02-18T03:47:24;101836.09;;;10.98;82.55
76260;BME280;65076;52.362;6.588;2023-02-18T03:49:52;101828.56;;;11.08;82.71
76260;BME280;65076;52.362;6.588;2023-02-18T03:52:20;101826.19;;;11.23;82.47
76260;BME280;65076;52.362;6.588;2023-02-18T03:54:49;101815.44;;;11.20;81.92
76260;BME280;65076;52.362;6.588;2023-02-18T03:57:17;101811.88;;;11.20;81.65
76260;BME280;65076;52.362;6.588;2023-02-18T03:59:45;101806.09;;;11.30;82.01
76260;BME280;65076;52.362;6.588;2023-02-18T04:02:13;101803.59;;;10.98;82.76
76260;BME280;65076;52.362;6.588;2023-02-18T04:04:40;101794.47;;;10.74;83.63
76260;BME280;65076;52.362;6.588;2023-02-18T04:07:08;101787.97;;;10.80;83.95
76260;BME280;65076;52.362;6.588;2023-02-18T04:09:36;101785.25;;;11.06;83.44
76260;BME280;65076;52.362;6.588;2023-02-18T04:12:06;101790.97;;;10.98;83.22
76260;BME280;65076;52.362;6.588;2023-02-18T04:14:34;101783.66;;;11.00;83.25
76260;BME280;65076;52.362;6.588;2023-02-18T04:17:02;101780.13;;;10.98;83.59
76260;BME280;65076;52.362;6.588;2023-02-18T04:19:29;101777.84;;;10.86;84.71
76260;BME280;65076;52.362;6.588;2023-02-18T04:21:57;101772.81;;;10.48;85.66
76260;BME280;65076;52.362;6.588;2023-02-18T04:24:25;101777.06;;;10.56;86.31
76260;BME280;65076;52.362;6.588;2023-02-18T04:26:53;101756.66;;;10.99;86.27
76260;BME280;65076;52.362;6.588;2023-02-18T04:29:22;101752.22;;;10.96;85.90
76260;BME280;65076;52.362;6.588;2023-02-18T04:31:50;101759.47;;;10.94;85.88
76260;BME280;65076;52.362;6.588;2023-02-18T04:34:18;101742.69;;;10.85;86.28
76260;BME280;65076;52.362;6.588;2023-02-18T04:36:46;101752.22;;;10.96;85.98
76260;BME280;65076;52.362;6.588;2023-02-18T04:39:14;101747.16;;;10.86;86.71
76260;BME280;65076;52.362;6.588;2023-02-18T04:41:42;101744.81;;;11.01;86.22
76260;BME280;65076;52.362;6.588;2023-02-18T04:44:09;101751.09;;;11.02;86.28
76260;BME280;65076;52.362;6.588;2023-02-18T04:46:39;101744.88;;;11.25;85.85
76260;BME280;65076;52.362;6.588;2023-02-18T04:49:06;101736.84;;;11.22;85.09
76260;BME280;65076;52.362;6.588;2023-02-18T04:51:34;101736.50;;;11.31;85.47
76260;BME280;65076;52.362;6.588;2023-02-18T04:54:03;101721.91;;;11.35;85.25
76260;BME280;65076;52.362;6.588;2023-02-18T04:56:31;101714.19;;;11.24;85.46
76260;BME280;65076;52.362;6.588;2023-02-18T04:58:59;101700.94;;;11.40;85.06
76260;BME280;65076;52.362;6.588;2023-02-18T05:01:26;101700.50;;;11.27;85.46
76260;BME280;65076;52.362;6.588;2023-02-18T05:03:56;101688.44;;;11.36;85.72
76260;BME280;65076;52.362;6.588;2023-02-18T05:06:23;101681.19;;;11.13;86.00
76260;BME280;65076;52.362;6.588;2023-02-18T05:08:51;101678.06;;;11.47;85.60
76260;BME280;65076;52.362;6.588;2023-02-18T05:11:19;101678.72;;;11.54;85.68
76260;BME280;65076;52.362;6.588;2023-02-18T05:13:47;101675.31;;;11.48;85.80
76260;BME280;65076;52.362;6.588;2023-02-18T05:16:15;101668.13;;;11.24;85.87
76260;BME280;65076;52.362;6.588;2023-02-18T05:18:43;101676.78;;;11.34;85.79
76260;BME280;65076;52.362;6.588;2023-02-18T05:21:12;101655.72;;;11.64;85.70
76260;BME280;65076;52.362;6.588;2023-02-18T05:23:40;101666.19;;;11.51;85.90
76260;BME280;65076;52.362;6.588;2023-02-18T05:26:08;101646.91;;;11.59;85.46
76260;BME280;65076;52.362;6.588;2023-02-18T05:28:36;101649.69;;;11.34;86.36
76260;BME280;65076;52.362;6.588;2023-02-18T05:31:04;101645.56;;;11.47;86.58
76260;BME280;65076;52.362;6.588;2023-02-18T05:33:32;101640.25;;;11.44;86.84
76260;BME280;65076;52.362;6.588;2023-02-18T05:36:00;101635.13;;;11.60;86.69
76260;BME280;65076;52.362;6.588;2023-02-18T05:38:29;101631.47;;;11.61;86.46
76260;BME280;65076;52.362;6.588;2023-02-18T05:40:57;101617.81;;;11.17;87.28
76260;BME280;65076;52.362;6.588;2023-02-18T05:43:25;101630.38;;;11.20;88.42
76260;BME280;65076;52.362;6.588;2023-02-18T05:45:53;101622.13;;;11.23;87.85
76260;BME280;65076;52.362;6.588;2023-02-18T05:48:20;101602.56;;;11.38;87.93
76260;BME280;65076;52.362;6.588;2023-02-18T05:50:48;101616.28;;;11.33;88.26
76260;BME280;65076;52.362;6.588;2023-02-18T05:53:19;101617.06;;;11.37;87.94
76260;BME280;65076;52.362;6.588;2023-02-18T05:55:48;101609.94;;;11.11;88.59
76260;BME280;65076;52.362;6.588;2023-02-18T05:58:16;101601.03;;;11.08;88.67
76260;BME280;65076;52.362;6.588;2023-02-18T06:00:44;101605.50;;;11.32;88.12
76260;BME280;65076;52.362;6.588;2023-02-18T06:03:12;101606.56;;;11.28;89.03
76260;BME280;65076;52.362;6.588;2023-02-18T06:05:40;101606.50;;;11.06;89.37
76260;BME280;65076;52.362;6.588;2023-02-18T06:08:08;101604.34;;;11.39;89.24
76260;BME280;65076;52.362;6.588;2023-02-18T06:10:35;101608.81;;;11.17;88.81
76260;BME280;65076;52.362;6.588;2023-02-18T06:13:05;101597.00;;;11.41;88.77
76260;BME280;65076;52.362;6.588;2023-02-18T06:15:33;101593.25;;;11.22;88.90
76260;BME280;65076;52.362;6.588;2023-02-18T06:18:00;101600.75;;;10.92;89.28
76260;BME280;65076;52.362;6.588;2023-02-18T06:20:28;101590.22;;;11.08;89.19
76260;BME280;65076;52.362;6.588;2023-02-18T06:22:56;101604.50;;;11.11;89.85
76260;BME280;65076;52.362;6.588;2023-02-18T06:25:24;101591.56;;;10.96;90.34
76260;BME280;65076;52.362;6.588;2023-02-18T06:27:52;101605.03;;;10.97;90.36
76260;BME280;65076;52.362;6.588;2023-02-18T06:30:21;101605.09;;;10.96;90.21
76260;BME280;65076;52.362;6.588;2023-02-18T06:32:50;101604.44;;;10.89;90.36
76260;BME280;65076;52.362;6.588;2023-02-18T06:35:18;101612.94;;;11.03;90.32
76260;BME280;65076;52.362;6.588;2023-02-18T06:37:45;101600.09;;;10.85;90.19
76260;BME280;65076;52.362;6.588;2023-02-18T06:40:13;101613.78;;;10.81;90.63
76260;BME280;65076;52.362;6.588;2023-02-18T06:42:41;101603.41;;;10.93;90.66
76260;BME280;65076;52.362;6.588;2023-02-18T06:45:09;101606.44;;;10.84;90.65
76260;BME280;65076;52.362;6.588;2023-02-18T06:47:38;101599.03;;;10.89;90.52
76260;BME280;65076;52.362;6.588;2023-02-18T06:50:07;101586.22;;;10.70;90.28
76260;BME280;65076;52.362;6.588;2023-02-18T06:52:35;101599.59;;;10.74;90.75
76260;BME280;65076;52.362;6.588;2023-02-18T06:55:03;101595.28;;;10.69;90.56
76260;BME280;65076;52.362;6.588;2023-02-18T06:57:32;101593.53;;;10.68;91.18
76260;BME280;65076;52.362;6.588;2023-02-18T07:00:00;101584.25;;;10.75;90.87
76260;BME280;65076;52.362;6.588;2023-02-18T07:02:28;101580.47;;;10.79;90.95
76260;BME280;65076;52.362;6.588;2023-02-18T07:04:57;101586.50;;;10.87;90.47
76260;BME280;65076;52.362;6.588;2023-02-18T07:07:25;101579.44;;;10.83;90.37
76260;BME280;65076;52.362;6.588;2023-02-18T07:09:53;101572.66;;;10.71;90.83
76260;BME280;65076;52.362;6.588;2023-02-18T07:12:21;101577.41;;;10.65;91.03
76260;BME280;65076;52.362;6.588;2023-02-18T07:14:49;101585.13;;;10.75;91.09
76260;BME280;65076;52.362;6.588;2023-02-18T07:17:16;101588.81;;;10.97;90.81
76260;BME280;65076;52.362;6.588;2023-02-18T07:19:45;101574.47;;;10.71;90.42
76260;BME280;65076;52.362;6.588;2023-02-18T07:22:14;101571.88;;;10.68;90.66
76260;BME280;65076;52.362;6.588;2023-02-18T07:24:42;101574.66;;;10.66;90.83
76260;BME280;65076;52.362;6.588;2023-02-18T07:27:10;101577.34;;;10.66;91.13
76260;BME280;65076;52.362;6.588;2023-02-18T07:29:38;101576.38;;;10.92;90.42
76260;BME280;65076;52.362;6.588;2023-02-18T07:32:18;101579.00;;;10.70;90.34
76260;BME280;65076;52.362;6.588;2023-02-18T07:37:59;101582.38;;;10.77;89.95
76260;BME280;65076;52.362;6.588;2023-02-18T07:40:28;101584.25;;;10.75;89.78
76260;BME280;65076;52.362;6.588;2023-02-18T07:42:56;101572.78;;;10.91;89.43
76260;BME280;65076;52.362;6.588;2023-02-18T07:45:24;101590.72;;;10.94;89.31
76260;BME280;65076;52.362;6.588;2023-02-18T07:47:52;101590.84;;;10.68;89.92
76260;BME280;65076;52.362;6.588;2023-02-18T07:50:20;101587.03;;;10.96;89.45
76260;BME280;65076;52.362;6.588;2023-02-18T07:52:48;101582.91;;;10.86;89.12
76260;BME280;65076;52.362;6.588;2023-02-18T07:55:17;101589.44;;;10.81;89.01
76260;BME280;65076;52.362;6.588;2023-02-18T07:57:45;101584.53;;;10.90;89.14
76260;BME280;65076;52.362;6.588;2023-02-18T08:00:26;101571.44;;;11.03;88.69
76260;BME280;65076;52.362;6.588;2023-02-18T08:02:54;101578.97;;;10.95;88.51
76260;BME280;65076;52.362;6.588;2023-02-18T08:05:22;101580.16;;;10.88;88.91
76260;BME280;65076;52.362;6.588;2023-02-18T08:07:50;101581.31;;;10.81;88.83
76260;BME280;65076;52.362;6.588;2023-02-18T08:10:19;101569.31;;;10.88;88.83
76260;BME280;65076;52.362;6.588;2023-02-18T08:12:47;101578.38;;;11.10;88.17
76260;BME280;65076;52.362;6.588;2023-02-18T08:15:15;101581.03;;;10.88;88.81
76260;BME280;65076;52.362;6.588;2023-02-18T08:17:43;101578.03;;;10.96;88.63
76260;BME280;65076;52.362;6.588;2023-02-18T08:20:11;101568.53;;;10.84;88.70
76260;BME280;65076;52.362;6.588;2023-02-18T08:22:39;101572.38;;;11.02;88.23
76260;BME280;65076;52.362;6.588;2023-02-18T08:25:07;101567.59;;;10.85;88.12
76260;BME280;65076;52.362;6.588;2023-02-18T08:27:50;101577.44;;;10.88;88.61
76260;BME280;65076;52.362;6.588;2023-02-18T08:30:18;101578.13;;;10.70;89.13
76260;BME280;65076;52.362;6.588;2023-02-18T08:32:46;101572.31;;;10.80;89.10
76260;BME280;65076;52.362;6.588;2023-02-18T08:35:14;101581.09;;;10.87;89.17
76260;BME280;65076;52.362;6.588;2023-02-18T08:37:42;101588.84;;;10.73;88.96
76260;BME280;65076;52.362;6.588;2023-02-18T08:40:19;101587.25;;;10.90;88.54
76260;BME280;65076;52.362;6.588;2023-02-18T08:42:47;101592.88;;;11.09;88.16
76260;BME280;65076;52.362;6.588;2023-02-18T08:45:17;101580.06;;;10.89;88.32
76260;BME280;65076;52.362;6.588;2023-02-18T08:47:45;101578.47;;;10.84;88.19
76260;BME280;65076;52.362;6.588;2023-02-18T08:50:33;101564.81;;;11.10;88.10
76260;BME280;65076;52.362;6.588;2023-02-18T08:53:02;101571.34;;;11.04;87.91
76260;BME280;65076;52.362;6.588;2023-02-18T08:55:32;101564.59;;;11.16;87.49
76260;BME280;65076;52.362;6.588;2023-02-18T08:58:00;101570.50;;;11.04;87.36
76260;BME280;65076;52.362;6.588;2023-02-18T09:00:32;101572.72;;;11.16;87.37
76260;BME280;65076;52.362;6.588;2023-02-18T09:03:00;101578.97;;;10.95;86.87
76260;BME280;65076;52.362;6.588;2023-02-18T09:05:29;101591.09;;;11.08;87.09
76260;BME280;65076;52.362;6.588;2023-02-18T09:07:56;101567.44;;;11.13;86.74
76260;BME280;65076;52.362;6.588;2023-02-18T09:10:25;101578.97;;;10.95;86.19
76260;BME280;65076;52.362;6.588;2023-02-18T09:12:52;101574.28;;;10.75;87.27
76260;BME280;65076;52.362;6.588;2023-02-18T09:15:20;101574.16;;;10.78;87.26
76260;BME280;65076;52.362;6.588;2023-02-18T09:17:49;101573.84;;;10.87;87.13
76260;BME280;65076;52.362;6.588;2023-02-18T09:20:18;101588.75;;;10.99;86.97
76260;BME280;65076;52.362;6.588;2023-02-18T09:22:50;101582.41;;;10.75;86.99
76260;BME280;65076;52.362;6.588;2023-02-18T09:25:18;101588.59;;;10.79;87.17
76260;BME280;65076;52.362;6.588;2023-02-18T09:27:45;101590.09;;;10.87;87.39
76260;BME280;65076;52.362;6.588;2023-02-18T09:30:14;101596.16;;;10.69;87.81
76260;BME280;65076;52.362;6.588;2023-02-18T09:32:42;101601.97;;;10.58;88.31
76260;BME280;65076;52.362;6.588;2023-02-18T09:35:11;101603.41;;;10.69;88.93
76260;BME280;65076;52.362;6.588;2023-02-18T09:37:39;101605.19;;;10.70;88.61
76260;BME280;65076;52.362;6.588;2023-02-18T09:40:09;101604.13;;;10.74;88.10
76260;BME280;65076;52.362;6.588;2023-02-18T09:42:54;101601.59;;;10.69;88.49
76260;BME280;65076;52.362;6.588;2023-02-18T09:45:23;101604.75;;;10.57;88.23
76260;BME280;65076;52.362;6.588;2023-02-18T09:47:52;101609.44;;;10.52;88.44
76260;BME280;65076;52.362;6.588;2023-02-18T09:50:25;101596.50;;;10.35;88.61
76260;BME280;65076;52.362;6.588;2023-02-18T09:52:57;101603.94;;;10.29;88.74
76260;BME280;65076;52.362;6.588;2023-02-18T09:55:29;101589.16;;;10.12;89.05
76260;BME280;65076;52.362;6.588;2023-02-18T09:58:01;101620.84;;;10.09;90.35
76260;BME280;65076;52.362;6.588;2023-02-18T10:00:34;101601.06;;;10.07;90.21
76260;BME280;65076;52.362;6.588;2023-02-18T10:03:09;101611.84;;;10.35;89.48
76260;BME280;65076;52.362;6.588;2023-02-18T10:05:55;101618.72;;;10.18;89.51
76260;BME280;65076;52.362;6.588;2023-02-18T10:08:28;101617.09;;;10.39;89.28
76260;BME280;65076;52.362;6.588;2023-02-18T10:10:58;101615.66;;;10.29;88.58
76260;BME280;65076;52.362;6.588;2023-02-18T10:13:29;101615.63;;;10.03;89.32
76260;BME280;65076;52.362;6.588;2023-02-18T10:15:59;101619.75;;;10.14;89.65
76260;BME280;65076;52.362;6.588;2023-02-18T10:18:30;101632.03;;;10.51;89.27
76260;BME280;65076;52.362;6.588;2023-02-18T10:21:04;101616.06;;;10.43;88.46
76260;BME280;65076;52.362;6.588;2023-02-18T10:23:36;101632.41;;;10.40;89.00
76260;BME280;65076;52.362;6.588;2023-02-18T10:26:11;101623.28;;;10.16;89.48
76260;BME280;65076;52.362;6.588;2023-02-18T10:28:43;101636.56;;;10.24;89.49
76260;BME280;65076;52.362;6.588;2023-02-18T10:31:14;101627.00;;;10.12;90.09
76260;BME280;65076;52.362;6.588;2023-02-18T10:33:52;101634.78;;;10.23;90.41
76260;BME280;65076;52.362;6.588;2023-02-18T10:36:34;101647.94;;;10.34;89.16
76260;BME280;65076;52.362;6.588;2023-02-18T10:39:25;101635.91;;;10.42;89.74
76260;BME280;65076;52.362;6.588;2023-02-18T10:42:13;101643.22;;;10.40;88.99
76260;BME280;65076;52.362;6.588;2023-02-18T10:44:57;101650.63;;;10.35;88.77
76260;BME280;65076;52.362;6.588;2023-02-18T10:47:38;101647.63;;;10.16;89.30
76260;BME280;65076;52.362;6.588;2023-02-18T10:50:21;101642.06;;;10.21;89.08
76260;BME280;65076;52.362;6.588;2023-02-18T10:52:59;101647.28;;;10.27;89.42
76260;BME280;65076;52.362;6.588;2023-02-18T10:55:36;101644.13;;;10.13;89.75
76260;BME280;65076;52.362;6.588;2023-02-18T10:58:25;101642.78;;;10.26;89.94
76260;BME280;65076;52.362;6.588;2023-02-18T11:00:56;101646.13;;;10.06;89.69
76260;BME280;65076;52.362;6.588;2023-02-18T11:03:26;101633.81;;;10.26;89.81
76260;BME280;65076;52.362;6.588;2023-02-18T11:06:14;101635.50;;;10.54;89.50
76260;BME280;65076;52.362;6.588;2023-02-18T11:08:48;101641.91;;;10.77;88.20
76260;BME280;65076;52.362;6.588;2023-02-18T11:11:22;101634.44;;;10.58;88.04
76260;BME280;65076;52.362;6.588;2023-02-18T11:13:57;101630.97;;;10.80;87.59
76260;BME280;65076;52.362;6.588;2023-02-18T11:16:36;101620.28;;;11.00;87.71
76260;BME280;65076;52.362;6.588;2023-02-18T11:19:30;101612.63;;;11.11;86.66
76260;BME280;65076;52.362;6.588;2023-02-18T11:22:06;101614.69;;;11.04;86.44
76260;BME280;65076;52.362;6.588;2023-02-18T11:24:42;101626.59;;;11.24;86.55
76260;BME280;65076;52.362;6.588;2023-02-18T11:27:22;101628.13;;;11.31;85.72
76260;BME280;65076;52.362;6.588;2023-02-18T11:29:59;101612.75;;;11.31;85.81
76260;BME280;65076;52.362;6.588;2023-02-18T11:32:30;101611.16;;;11.49;84.90
76260;BME280;65076;52.362;6.588;2023-02-18T11:35:03;101615.59;;;11.28;84.49
76260;BME280;65076;52.362;6.588;2023-02-18T11:37:32;101617.94;;;11.37;84.13
76260;BME280;65076;52.362;6.588;2023-02-18T11:40:06;101629.13;;;11.75;84.10
76260;BME280;65076;52.362;6.588;2023-02-18T11:42:46;101625.06;;;11.17;84.39
76260;BME280;65076;52.362;6.588;2023-02-18T11:45:26;101624.25;;;11.15;85.93
76260;BME280;65076;52.362;6.588;2023-02-18T11:48:00;101626.78;;;11.19;86.33
76260;BME280;65076;52.362;6.588;2023-02-18T11:50:33;101644.09;;;11.38;85.56
76260;BME280;65076;52.362;6.588;2023-02-18T11:53:25;101625.00;;;11.18;85.97
76260;BME280;65076;52.362;6.588;2023-02-18T11:55:58;101635.94;;;11.15;85.92
76260;BME280;65076;52.362;6.588;2023-02-18T11:58:36;101643.69;;;11.49;85.50
76260;BME280;65076;52.362;6.588;2023-02-18T12:01:13;101639.25;;;11.23;85.28
76260;BME280;65076;52.362;6.588;2023-02-18T12:03:49;101650.34;;;11.40;84.84
76260;BME280;65076;52.362;6.588;2023-02-18T12:06:25;101631.19;;;11.45;83.75
76260;BME280;65076;52.362;6.588;2023-02-18T12:09:02;101629.56;;;11.63;83.92
76260;BME280;65076;52.362;6.588;2023-02-18T12:11:37;101630.69;;;11.80;83.16
76260;BME280;65076;52.362;6.588;2023-02-18T12:14:12;101635.31;;;11.55;82.71
76260;BME280;65076;52.362;6.588;2023-02-18T12:16:51;101632.03;;;11.92;82.57
76260;BME280;65076;52.362;6.588;2023-02-18T12:19:49;101637.31;;;11.95;81.25
76260;BME280;65076;52.362;6.588;2023-02-18T12:22:31;101634.56;;;11.97;80.85
76260;BME280;65076;52.362;6.588;2023-02-18T12:25:21;101621.25;;;12.32;80.48
76260;BME280;65076;52.362;6.588;2023-02-18T12:28:08;101628.72;;;12.27;80.00
76260;BME280;65076;52.362;6.588;2023-02-18T12:31:04;101636.97;;;12.66;79.71
76260;BME280;65076;52.362;6.588;2023-02-18T12:33:54;101639.41;;;12.52;79.55
76260;BME280;65076;52.362;6.588;2023-02-18T12:36:48;101636.03;;;12.25;79.42
76260;BME280;65076;52.362;6.588;2023-02-18T12:39:41;101632.34;;;12.48;79.76
76260;BME280;65076;52.362;6.588;2023-02-18T12:42:39;101637.97;;;12.64;79.86
76260;BME280;65076;52.362;6.588;2023-02-18T12:48:47;101634.06;;;12.71;80.36
76260;BME280;65076;52.362;6.588;2023-02-18T12:51:48;101641.38;;;12.89;77.72
76260;BME280;65076;52.362;6.588;2023-02-18T12:54:32;101645.13;;;12.87;78.87
76260;BME280;65076;52.362;6.588;2023-02-18T12:57:33;101644.50;;;13.00;78.51
76260;BME280;65076;52.362;6.588;2023-02-18T13:00:28;101646.53;;;12.75;78.71
76260;BME280;65076;52.362;6.588;2023-02-18T13:06:47;101644.94;;;13.30;76.19
76260;BME280;65076;52.362;6.588;2023-02-18T13:09:54;101635.09;;;13.46;75.37
76260;BME280;65076;52.362;6.588;2023-02-18T13:12:37;101647.16;;;13.02;75.95
76260;BME280;65076;52.362;6.588;2023-02-18T13:15:16;101656.69;;;13.31;75.90
76260;BME280;65076;52.362;6.588;2023-02-18T13:17:48;101652.53;;;13.61;74.76
76260;BME280;65076;52.362;6.588;2023-02-18T13:20:24;101651.03;;;13.35;74.17
76260;BME280;65076;52.362;6.588;2023-02-18T13:23:03;101640.75;;;13.42;74.91
76260;BME280;65076;52.362;6.588;2023-02-18T13:25:36;101652.06;;;13.33;75.22
76260;BME280;65076;52.362;6.588;2023-02-18T13:28:11;101658.34;;;12.94;76.00
76260;BME280;65076;52.362;6.588;2023-02-18T13:30:51;101659.22;;;12.95;76.08
76260;BME280;65076;52.362;6.588;2023-02-18T13:33:35;101651.03;;;13.17;75.42
76260;BME280;65076;52.362;6.588;2023-02-18T13:36:20;101654.84;;;12.92;75.26
76260;BME280;65076;52.362;6.588;2023-02-18T13:39:04;101655.34;;;13.00;75.48
76260;BME280;65076;52.362;6.588;2023-02-18T13:41:36;101656.50;;;12.95;74.89